createdAt,value
2022-12-08T00:01:13.062Z,2.10
2022-12-08T00:03:40.763Z,1.72
2022-12-08T00:06:09.653Z,1.88
2022-12-08T00:08:36.040Z,2.06
2022-12-08T00:11:02.573Z,1.97
2022-12-08T00:13:28.965Z,2.03
2022-12-08T00:15:55.523Z,2.08
2022-12-08T00:18:22.105Z,2.08
2022-12-08T00:20:48.456Z,2.14
2022-12-08T00:23:14.848Z,2.13
2022-12-08T00:25:41.267Z,1.99
2022-12-08T00:28:07.750Z,1.99
2022-12-08T00:30:34.154Z,1.94
2022-12-08T00:33:00.554Z,1.97
2022-12-08T00:35:27.162Z,1.96
2022-12-08T00:37:59.094Z,1.99
2022-12-08T00:40:27.188Z,2.02
2022-12-08T00:42:53.590Z,2.00
2022-12-08T00:45:20.030Z,2.05
2022-12-08T00:47:46.445Z,2.05
2022-12-08T00:50:12.906Z,2.08
2022-12-08T00:52:39.616Z,2.11
2022-12-08T00:55:08.253Z,2.10
2022-12-08T00:57:34.643Z,2.13
2022-12-08T01:00:01.087Z,2.17
2022-12-08T01:02:27.660Z,2.24
2022-12-08T01:04:54.072Z,2.17
2022-12-08T01:07:20.473Z,2.18
2022-12-08T01:09:46.863Z,2.07
2022-12-08T01:12:13.337Z,1.81
2022-12-08T01:14:39.722Z,1.98
2022-12-08T01:17:06.245Z,1.97
2022-12-08T01:19:33.538Z,2.08
2022-12-08T01:21:59.995Z,2.07
2022-12-08T01:24:26.390Z,2.04
2022-12-08T01:26:52.845Z,2.02
2022-12-08T01:29:19.241Z,2.15
2022-12-08T01:31:45.624Z,2.24
2022-12-08T01:34:12.819Z,2.25
2022-12-08T01:36:39.299Z,2.22
2022-12-08T01:39:06.739Z,2.22
2022-12-08T01:41:33.412Z,2.23
2022-12-08T01:44:00.087Z,2.21
2022-12-08T01:46:27.144Z,2.18
2022-12-08T01:48:53.619Z,2.17
2022-12-08T01:51:21.166Z,2.13
2022-12-08T01:53:47.617Z,2.20
2022-12-08T01:56:14.067Z,2.24
2022-12-08T01:58:40.430Z,2.28
2022-12-08T02:01:06.884Z,2.30
2022-12-08T02:03:36.420Z,2.32
2022-12-08T02:06:02.909Z,2.43
2022-12-08T02:08:31.784Z,2.33
2022-12-08T02:10:58.744Z,2.37
2022-12-08T02:13:26.187Z,2.45
2022-12-08T02:15:52.745Z,2.49
2022-12-08T02:18:19.333Z,2.46
2022-12-08T02:20:45.865Z,2.46
2022-12-08T02:23:12.342Z,2.44
2022-12-08T02:25:38.820Z,2.45
2022-12-08T02:28:08.840Z,2.44
2022-12-08T02:30:35.312Z,2.47
2022-12-08T02:33:02.221Z,2.44
2022-12-08T02:35:29.043Z,2.45
2022-12-08T02:37:55.706Z,2.46
2022-12-08T02:40:22.217Z,2.52
2022-12-08T02:42:49.038Z,2.53
2022-12-08T02:45:15.600Z,2.47
2022-12-08T02:47:43.121Z,2.49
2022-12-08T02:50:09.524Z,2.40
2022-12-08T02:52:36.009Z,2.47
2022-12-08T02:55:02.732Z,2.63
2022-12-08T02:57:29.170Z,2.59
2022-12-08T02:59:55.653Z,2.66
2022-12-08T03:02:22.159Z,2.35
2022-12-08T03:04:50.743Z,2.39
2022-12-08T03:07:17.467Z,2.24
2022-12-08T03:09:43.887Z,1.70
2022-12-08T03:12:10.356Z,1.97
2022-12-08T03:14:36.821Z,1.95
2022-12-08T03:17:03.563Z,2.03
2022-12-08T03:19:30.936Z,2.11
2022-12-08T03:21:57.440Z,2.18
2022-12-08T03:24:23.793Z,2.13
2022-12-08T03:26:50.304Z,1.79
2022-12-08T03:29:16.915Z,2.06
2022-12-08T03:31:43.312Z,2.17
2022-12-08T03:34:09.744Z,2.13
2022-12-08T03:36:36.590Z,2.16
2022-12-08T03:39:03.094Z,2.19
2022-12-08T03:41:29.465Z,2.27
2022-12-08T03:43:58.259Z,2.18
2022-12-08T03:48:50.428Z,2.14
2022-12-08T03:51:17.169Z,2.12
2022-12-08T03:53:43.564Z,2.12
2022-12-08T03:56:09.943Z,2.13
2022-12-08T03:58:37.697Z,2.14
2022-12-08T04:01:04.329Z,2.18
2022-12-08T04:03:30.713Z,2.20
2022-12-08T04:05:57.179Z,2.17
2022-12-08T04:08:24.268Z,2.09
2022-12-08T04:10:50.760Z,2.12
2022-12-08T04:13:17.156Z,2.14
2022-12-08T04:15:43.619Z,2.11
2022-12-08T04:18:10.080Z,2.12
2022-12-08T04:20:36.449Z,2.14
2022-12-08T04:23:02.881Z,2.13
2022-12-08T04:25:29.514Z,2.12
2022-12-08T04:27:56.109Z,2.19
2022-12-08T04:30:22.493Z,2.26
2022-12-08T04:32:48.905Z,2.21
2022-12-08T04:35:15.332Z,2.16
2022-12-08T04:37:42.241Z,2.13
2022-12-08T04:40:08.905Z,2.12
2022-12-08T04:42:35.266Z,2.19
2022-12-08T04:45:01.722Z,2.20
2022-12-08T04:47:28.693Z,2.14
2022-12-08T04:49:55.953Z,1.99
2022-12-08T04:52:22.902Z,1.99
2022-12-08T04:54:49.643Z,2.00
2022-12-08T04:57:16.103Z,1.92
2022-12-08T04:59:42.512Z,1.66
2022-12-08T05:02:09.001Z,1.46
2022-12-08T05:04:35.478Z,1.62
2022-12-08T05:07:01.943Z,1.57
2022-12-08T05:09:28.321Z,1.71
2022-12-08T05:11:56.103Z,1.78
2022-12-08T05:14:22.480Z,1.86
2022-12-08T05:16:49.035Z,2.07
2022-12-08T05:19:15.579Z,1.94
2022-12-08T05:21:42.024Z,1.84
2022-12-08T05:24:08.467Z,1.88
2022-12-08T05:26:35.287Z,1.87
2022-12-08T05:29:02.102Z,1.92
2022-12-08T05:31:28.644Z,1.91
2022-12-08T05:33:57.435Z,1.90
2022-12-08T05:36:27.919Z,1.86
2022-12-08T05:38:54.425Z,1.92
2022-12-08T05:41:20.791Z,1.96
2022-12-08T05:43:47.796Z,2.00
2022-12-08T05:46:14.472Z,1.87
2022-12-08T05:48:40.881Z,1.88
2022-12-08T05:51:07.252Z,1.86
2022-12-08T05:53:33.890Z,1.91
2022-12-08T05:56:00.296Z,1.91
2022-12-08T05:58:29.172Z,1.88
2022-12-08T06:00:55.561Z,1.96
2022-12-08T06:03:22.122Z,2.05
2022-12-08T06:05:48.756Z,1.93
2022-12-08T06:08:15.197Z,2.04
2022-12-08T06:10:41.802Z,2.08
2022-12-08T06:13:08.215Z,2.04
2022-12-08T06:15:37.373Z,2.02
2022-12-08T06:18:03.793Z,2.02
2022-12-08T06:20:30.491Z,2.03
2022-12-08T06:22:56.939Z,2.00
2022-12-08T06:25:23.746Z,1.96
2022-12-08T06:27:50.993Z,1.87
2022-12-08T06:30:17.634Z,1.92
2022-12-08T06:32:44.068Z,1.94
2022-12-08T06:35:10.700Z,2.01
2022-12-08T06:37:37.169Z,1.97
2022-12-08T06:40:03.785Z,1.98
2022-12-08T06:42:30.392Z,1.98
2022-12-08T06:44:57.206Z,2.00
2022-12-08T06:47:26.372Z,2.05
2022-12-08T06:49:53.349Z,1.95
2022-12-08T06:52:22.263Z,1.59
2022-12-08T06:54:48.670Z,1.72
2022-12-08T06:57:15.116Z,1.81
2022-12-08T06:59:41.689Z,1.87
2022-12-08T07:02:08.359Z,1.88
2022-12-08T07:04:34.990Z,2.00
2022-12-08T07:07:01.385Z,2.03
2022-12-08T07:09:28.364Z,1.98
2022-12-08T07:11:54.796Z,2.00
2022-12-08T07:14:21.589Z,2.03
2022-12-08T07:16:48.024Z,2.09
2022-12-08T07:19:14.537Z,2.15
2022-12-08T07:21:41.016Z,2.09
2022-12-08T07:24:07.471Z,2.12
2022-12-08T07:26:33.953Z,2.07
2022-12-08T07:29:01.385Z,2.06
2022-12-08T07:31:28.642Z,2.13
2022-12-08T07:33:55.059Z,1.98
2022-12-08T07:36:22.346Z,1.89
2022-12-08T07:38:48.980Z,1.98
2022-12-08T07:41:15.354Z,1.31
2022-12-08T07:43:41.751Z,1.72
2022-12-08T07:46:08.465Z,2.02
2022-12-08T07:48:39.688Z,2.17
2022-12-08T07:51:06.300Z,2.08
2022-12-08T07:53:32.660Z,2.08
2022-12-08T07:55:59.283Z,2.03
2022-12-08T07:58:25.672Z,2.08
2022-12-08T08:00:52.124Z,1.96
2022-12-08T08:03:18.640Z,1.74
2022-12-08T08:05:47.334Z,1.59
2022-12-08T08:08:13.800Z,1.60
2022-12-08T08:10:42.283Z,1.65
2022-12-08T08:13:08.653Z,1.85
2022-12-08T08:15:35.419Z,2.08
2022-12-08T08:18:01.989Z,2.26
2022-12-08T08:20:28.972Z,2.32
2022-12-08T08:22:55.397Z,2.43
2022-12-08T08:25:21.898Z,2.58
2022-12-08T08:27:48.395Z,2.61
2022-12-08T08:30:19.892Z,2.59
2022-12-08T08:32:47.986Z,2.51
2022-12-08T08:35:14.421Z,2.72
2022-12-08T08:37:45.582Z,2.69
2022-12-08T08:40:15.436Z,2.76
2022-12-08T08:42:41.876Z,2.61
2022-12-08T08:45:08.870Z,2.73
2022-12-08T08:47:35.407Z,2.73
2022-12-08T08:50:04.365Z,2.90
2022-12-08T08:52:31.702Z,3.04
2022-12-08T08:54:58.112Z,2.87
2022-12-08T08:57:26.079Z,2.71
2022-12-08T08:59:53.362Z,2.97
2022-12-08T09:02:19.842Z,3.24
2022-12-08T09:04:46.409Z,3.32
2022-12-08T09:07:20.075Z,3.32
2022-12-08T09:09:46.529Z,3.21
2022-12-08T09:12:12.978Z,3.37
2022-12-08T09:14:39.687Z,3.35
2022-12-08T09:17:06.282Z,3.56
2022-12-08T09:19:32.708Z,3.63
2022-12-08T09:21:59.597Z,3.46
2022-12-08T09:24:26.341Z,3.39
2022-12-08T09:26:52.826Z,3.35
2022-12-08T09:29:19.419Z,3.45
2022-12-08T09:31:46.601Z,3.63
2022-12-08T09:34:15.347Z,3.71
2022-12-08T09:36:41.877Z,3.73
2022-12-08T09:39:08.267Z,3.77
2022-12-08T09:41:39.284Z,3.84
2022-12-08T09:44:08.344Z,4.05
2022-12-08T09:46:34.982Z,4.30
2022-12-08T09:49:01.483Z,4.16
2022-12-08T09:51:28.012Z,4.09
2022-12-08T09:53:54.468Z,4.14
2022-12-08T09:56:20.852Z,4.25
2022-12-08T09:58:50.496Z,4.15
2022-12-08T10:01:16.953Z,4.10
2022-12-08T10:03:43.529Z,3.92
2022-12-08T10:06:09.902Z,3.98
2022-12-08T10:08:36.482Z,4.00
2022-12-08T10:11:02.895Z,4.15
2022-12-08T10:13:30.114Z,4.03
2022-12-08T10:15:56.826Z,3.81
2022-12-08T10:18:23.275Z,3.86
2022-12-08T10:20:52.086Z,3.75
2022-12-08T10:23:18.529Z,3.92
2022-12-08T10:25:45.450Z,3.64
2022-12-08T10:28:11.822Z,3.65
2022-12-08T10:30:38.385Z,3.51
2022-12-08T10:33:04.812Z,3.44
2022-12-08T10:35:31.514Z,3.68
2022-12-08T10:37:57.893Z,3.64
2022-12-08T10:40:24.346Z,3.20
2022-12-08T10:42:51.184Z,3.12
2022-12-08T10:45:21.384Z,3.36
2022-12-08T10:47:52.373Z,3.24
2022-12-08T10:50:22.155Z,3.41
2022-12-08T10:52:48.567Z,3.37
2022-12-08T10:55:15.096Z,3.36
2022-12-08T10:57:41.973Z,3.48
2022-12-08T11:00:13.758Z,3.20
2022-12-08T11:02:41.192Z,3.26
2022-12-08T11:05:07.588Z,3.26
2022-12-08T11:07:34.045Z,3.37
2022-12-08T11:10:00.553Z,3.27
2022-12-08T11:12:26.937Z,3.33
2022-12-08T11:14:53.335Z,3.36
2022-12-08T11:17:22.427Z,3.58
2022-12-08T11:19:49.017Z,3.41
2022-12-08T11:22:15.802Z,3.53
2022-12-08T11:24:42.355Z,3.49
2022-12-08T11:27:08.767Z,3.50
2022-12-08T11:29:35.386Z,3.54
2022-12-08T11:32:02.115Z,3.74
2022-12-08T11:34:29.622Z,3.53
2022-12-08T11:36:55.999Z,3.44
2022-12-08T11:39:22.420Z,3.47
2022-12-08T11:41:51.231Z,3.41
2022-12-08T11:44:17.969Z,3.41
2022-12-08T11:46:44.550Z,3.36
2022-12-08T11:49:11.391Z,3.61
2022-12-08T11:51:38.230Z,3.61
2022-12-08T11:54:04.727Z,3.78
2022-12-08T11:56:31.567Z,3.94
2022-12-08T11:59:00.094Z,3.92
2022-12-08T12:01:27.058Z,3.79
2022-12-08T12:03:53.514Z,3.77
2022-12-08T12:09:06.256Z,3.71
2022-12-08T12:11:32.699Z,3.75
2022-12-08T12:13:59.097Z,3.40
2022-12-08T12:16:25.562Z,3.61
2022-12-08T12:18:52.120Z,3.73
2022-12-08T12:21:18.575Z,3.77
2022-12-08T12:23:45.091Z,3.62
2022-12-08T12:26:11.469Z,3.69
2022-12-08T12:28:38.012Z,3.80
2022-12-08T12:31:04.432Z,3.89
2022-12-08T12:33:30.883Z,3.92
2022-12-08T12:35:57.287Z,3.88
2022-12-08T12:38:23.643Z,3.66
2022-12-08T12:40:51.013Z,3.64
2022-12-08T12:43:17.615Z,3.50
2022-12-08T12:45:44.194Z,3.69
2022-12-08T12:48:10.581Z,3.54
2022-12-08T12:50:37.564Z,3.51
2022-12-08T12:53:05.920Z,3.34
2022-12-08T12:55:36.361Z,3.62
2022-12-08T12:58:03.006Z,3.31
2022-12-08T13:00:29.602Z,3.39
2022-12-08T13:02:56.310Z,3.37
2022-12-08T13:05:22.754Z,3.65
2022-12-08T13:07:49.694Z,3.72
2022-12-08T13:10:16.590Z,3.67
2022-12-08T13:12:43.220Z,3.74
2022-12-08T13:15:09.886Z,3.72
2022-12-08T13:17:37.075Z,3.57
2022-12-08T13:20:04.832Z,3.57
2022-12-08T13:22:32.037Z,3.57
2022-12-08T13:24:58.735Z,3.59
2022-12-08T13:27:25.184Z,3.65
2022-12-08T13:29:51.978Z,3.83
2022-12-08T13:32:19.325Z,3.77
2022-12-08T13:34:47.507Z,3.75
2022-12-08T13:37:13.954Z,3.76
2022-12-08T13:39:41.041Z,3.72
2022-12-08T13:42:07.577Z,3.66
2022-12-08T13:47:41.473Z,3.70
2022-12-08T13:58:28.109Z,3.89
2022-12-08T14:00:55.524Z,3.75
2022-12-08T14:03:21.993Z,3.79
2022-12-08T14:06:11.689Z,3.87
2022-12-08T14:11:21.235Z,3.64
2022-12-08T14:13:47.650Z,3.60
2022-12-08T14:16:14.081Z,3.72
2022-12-08T14:18:40.740Z,3.83
2022-12-08T14:21:20.807Z,3.70
2022-12-08T14:23:47.945Z,3.62
2022-12-08T14:26:14.341Z,3.61
2022-12-08T14:28:44.744Z,3.33
2022-12-08T14:31:11.849Z,3.39
2022-12-08T14:33:39.551Z,3.39
2022-12-08T14:36:05.938Z,3.51
2022-12-08T14:38:32.448Z,3.59
2022-12-08T14:40:59.127Z,3.47
2022-12-08T14:43:26.040Z,3.52
2022-12-08T14:45:52.830Z,3.23
2022-12-08T14:48:19.500Z,3.11
2022-12-08T14:50:45.871Z,3.54
2022-12-08T14:53:13.659Z,3.57
2022-12-08T14:55:40.176Z,3.61
2022-12-08T14:58:11.635Z,3.45
2022-12-08T15:00:40.424Z,3.35
2022-12-08T15:03:06.865Z,3.57
2022-12-08T15:05:33.700Z,3.65
2022-12-08T15:08:00.284Z,3.71
2022-12-08T15:10:26.704Z,3.57
2022-12-08T15:12:53.172Z,3.65
2022-12-08T15:15:19.611Z,3.52
2022-12-08T15:17:46.293Z,3.41
2022-12-08T15:20:12.668Z,3.34
2022-12-08T15:22:39.191Z,3.26
2022-12-08T15:25:05.654Z,3.35
2022-12-08T15:27:36.620Z,3.35
2022-12-08T15:30:11.763Z,3.33
2022-12-08T15:32:38.510Z,3.34
2022-12-08T15:35:04.945Z,3.40
2022-12-08T15:37:31.352Z,3.51
2022-12-08T15:39:57.684Z,3.55
2022-12-08T15:42:24.223Z,3.77
2022-12-08T15:44:50.670Z,3.65
2022-12-08T15:47:17.645Z,3.66
2022-12-08T15:49:44.025Z,3.68
2022-12-08T15:52:11.818Z,3.60
2022-12-08T15:54:38.505Z,3.53
2022-12-08T15:57:19.459Z,3.42
2022-12-08T15:59:48.558Z,3.39
2022-12-08T16:02:22.386Z,3.36
2022-12-08T16:07:35.780Z,3.26
2022-12-08T16:10:02.989Z,3.35
2022-12-08T16:12:48.139Z,3.38
2022-12-08T16:15:49.997Z,3.37
2022-12-08T16:18:05.961Z,3.44
2022-12-08T16:21:05.475Z,3.39
2022-12-08T16:23:41.786Z,3.29
2022-12-08T16:26:24.121Z,3.31
2022-12-08T16:28:54.948Z,3.37
2022-12-08T16:31:23.408Z,3.31
2022-12-08T16:33:50.358Z,3.31
2022-12-08T16:36:17.405Z,3.35
2022-12-08T16:38:43.831Z,3.29
2022-12-08T16:41:12.952Z,3.29
2022-12-08T16:43:39.534Z,3.32
2022-12-08T16:46:05.958Z,3.33
2022-12-08T16:48:32.544Z,3.34
2022-12-08T16:50:58.982Z,3.37
2022-12-08T16:53:25.753Z,3.35
2022-12-08T16:55:54.673Z,3.36
2022-12-08T16:58:21.281Z,3.37
2022-12-08T17:00:47.951Z,3.39
2022-12-08T17:03:14.547Z,3.29
2022-12-08T17:05:42.053Z,3.25
2022-12-08T17:08:08.796Z,3.29
2022-12-08T17:10:35.488Z,3.16
2022-12-08T17:13:01.833Z,3.21
2022-12-08T17:15:28.549Z,3.35
2022-12-08T17:17:54.917Z,3.22
2022-12-08T17:20:21.389Z,3.17
2022-12-08T17:22:47.847Z,3.18
2022-12-08T17:25:14.244Z,3.25
2022-12-08T17:27:40.659Z,3.32
2022-12-08T17:30:07.500Z,3.37
2022-12-08T17:32:39.797Z,3.27
2022-12-08T17:35:06.402Z,3.31
2022-12-08T17:37:34.225Z,3.35
2022-12-08T17:40:00.847Z,3.30
2022-12-08T17:42:27.449Z,3.20
2022-12-08T17:44:55.792Z,3.11
2022-12-08T17:47:22.289Z,3.10
2022-12-08T17:49:49.157Z,2.93
2022-12-08T17:52:15.713Z,2.98
2022-12-08T17:54:42.419Z,2.93
2022-12-08T17:57:09.206Z,2.77
2022-12-08T17:59:36.028Z,2.93
2022-12-08T18:02:02.773Z,2.99
2022-12-08T18:04:31.687Z,3.09
2022-12-08T18:07:00.278Z,3.16
2022-12-08T18:09:27.158Z,3.16
2022-12-08T18:11:57.659Z,3.19
2022-12-08T18:14:27.173Z,3.19
2022-12-08T18:16:54.081Z,3.25
2022-12-08T18:19:21.168Z,3.01
2022-12-08T18:21:48.000Z,3.02
2022-12-08T18:24:14.517Z,2.94
2022-12-08T18:26:41.259Z,2.99
2022-12-08T18:29:07.939Z,3.08
2022-12-08T18:31:34.465Z,2.97
2022-12-08T18:34:01.286Z,2.88
2022-12-08T18:36:28.440Z,2.98
2022-12-08T18:38:55.072Z,3.06
2022-12-08T18:41:21.570Z,3.16
2022-12-08T18:43:48.075Z,3.17
2022-12-08T18:46:14.820Z,3.22
2022-12-08T18:48:41.622Z,3.17
2022-12-08T18:51:08.208Z,3.13
2022-12-08T18:53:34.824Z,3.18
2022-12-08T18:56:02.104Z,3.20
2022-12-08T18:58:28.996Z,3.17
2022-12-08T19:00:55.759Z,3.23
2022-12-08T19:03:22.676Z,3.24
2022-12-08T19:05:49.570Z,3.24
2022-12-08T19:08:16.579Z,3.26
2022-12-08T19:10:43.467Z,3.19
2022-12-08T19:13:10.053Z,3.14
2022-12-08T19:15:38.094Z,3.09
2022-12-08T19:18:08.720Z,3.07
2022-12-08T19:20:35.806Z,3.20
2022-12-08T19:23:02.747Z,3.23
2022-12-08T19:25:29.212Z,3.26
2022-12-08T19:27:57.714Z,3.29
2022-12-08T19:30:25.068Z,3.29
2022-12-08T19:32:52.012Z,3.06
2022-12-08T19:35:19.390Z,3.09
2022-12-08T19:37:46.657Z,3.00
2022-12-08T19:40:13.302Z,2.92
2022-12-08T19:42:42.619Z,2.75
2022-12-08T19:45:09.059Z,2.79
2022-12-08T19:47:36.877Z,2.94
2022-12-08T19:50:05.305Z,2.85
2022-12-08T19:52:32.657Z,2.81
2022-12-08T19:55:01.108Z,2.64
2022-12-08T19:57:32.535Z,2.54
2022-12-08T19:59:59.074Z,2.60
2022-12-08T20:02:26.081Z,2.51
2022-12-08T20:04:55.614Z,2.69
2022-12-08T20:07:22.159Z,2.68
2022-12-08T20:09:49.449Z,2.72
2022-12-08T20:12:16.391Z,2.92
2022-12-08T20:14:46.023Z,3.02
2022-12-08T20:17:13.566Z,3.05
2022-12-08T20:19:40.456Z,3.09
2022-12-08T20:22:07.447Z,3.13
2022-12-08T20:24:34.734Z,3.41
2022-12-08T20:27:02.347Z,3.81
2022-12-08T20:29:29.312Z,3.61
2022-12-08T20:31:56.272Z,3.76
2022-12-08T20:34:23.805Z,3.78
2022-12-08T20:36:51.673Z,3.83
2022-12-08T20:39:18.456Z,3.82
2022-12-08T20:41:45.024Z,3.99
2022-12-08T20:44:11.926Z,4.03
2022-12-08T20:46:38.858Z,4.07
2022-12-08T20:49:05.720Z,4.07
2022-12-08T20:51:32.606Z,4.49
2022-12-08T20:54:00.946Z,4.74
2022-12-08T20:56:27.777Z,4.96
2022-12-08T20:58:55.117Z,5.00
2022-12-08T21:01:21.657Z,4.58
2022-12-08T21:03:48.685Z,4.34
2022-12-08T21:06:16.062Z,4.24
2022-12-08T21:08:42.776Z,4.13
2022-12-08T21:11:10.326Z,4.03
2022-12-08T21:13:39.055Z,3.94
2022-12-08T21:16:05.742Z,3.88
2022-12-08T21:18:39.453Z,3.64
2022-12-08T21:21:06.842Z,3.68
2022-12-08T21:23:33.392Z,3.60
2022-12-08T21:26:00.017Z,3.49
2022-12-08T21:28:26.721Z,3.38
2022-12-08T21:30:53.113Z,3.30
2022-12-08T21:33:19.751Z,3.24
2022-12-08T21:35:46.325Z,3.15
2022-12-08T21:38:12.831Z,3.16
2022-12-08T21:40:39.380Z,3.17
2022-12-08T21:43:05.771Z,3.09
2022-12-08T21:45:32.322Z,3.07
2022-12-08T21:47:59.094Z,3.12
2022-12-08T21:50:25.976Z,3.13
2022-12-08T21:52:52.616Z,3.10
2022-12-08T21:55:19.254Z,3.10
2022-12-08T21:57:46.003Z,3.02
2022-12-08T22:00:12.612Z,3.02
2022-12-08T22:02:39.512Z,3.07
2022-12-08T22:05:06.477Z,3.03
2022-12-08T22:07:33.304Z,3.05
2022-12-08T22:09:59.938Z,3.14
2022-12-08T22:12:26.469Z,3.05
2022-12-08T22:14:53.150Z,3.08
2022-12-08T22:17:20.844Z,3.09
2022-12-08T22:19:48.781Z,3.12
2022-12-08T22:22:15.575Z,3.06
2022-12-08T22:24:42.198Z,3.12
2022-12-08T22:27:08.896Z,2.86
2022-12-08T22:29:35.633Z,2.94
2022-12-08T22:32:02.289Z,2.89
2022-12-08T22:34:29.081Z,2.93
2022-12-08T22:36:56.111Z,2.95
2022-12-08T22:39:22.918Z,2.88
2022-12-08T22:41:49.449Z,3.01
2022-12-08T22:44:16.022Z,2.97
2022-12-08T22:46:42.849Z,3.01
2022-12-08T22:49:09.621Z,3.13
2022-12-08T22:51:36.059Z,3.13
2022-12-08T22:54:02.861Z,3.11
2022-12-08T22:56:31.619Z,3.00
2022-12-08T22:58:58.163Z,3.15
2022-12-08T23:01:24.787Z,2.94
2022-12-08T23:03:51.423Z,3.05
2022-12-08T23:06:18.276Z,2.91
2022-12-08T23:08:45.237Z,2.96
2022-12-08T23:11:11.853Z,2.76
2022-12-08T23:13:38.439Z,3.00
2022-12-08T23:16:05.388Z,3.01
2022-12-08T23:18:31.911Z,3.11
2022-12-08T23:20:58.348Z,3.06
2022-12-08T23:23:24.929Z,3.09
2022-12-08T23:25:51.577Z,2.90
2022-12-08T23:28:18.235Z,2.82
2022-12-08T23:30:44.808Z,2.70
2022-12-08T23:33:12.377Z,2.81
2022-12-08T23:35:39.097Z,2.84
2022-12-08T23:38:05.528Z,2.80
2022-12-08T23:40:31.982Z,2.53
2022-12-08T23:42:58.620Z,2.56
2022-12-08T23:45:25.176Z,2.52
2022-12-08T23:47:51.811Z,2.68
2022-12-08T23:50:18.273Z,2.72
2022-12-08T23:52:44.832Z,2.51
2022-12-08T23:55:11.319Z,2.53
2022-12-08T23:57:38.045Z,2.57
